sensor_id;sensor_type;location;lat;lon;timestamp;temperature;humidity
21306;DHT22;10812;51.838;5.838;2023-07-29T00:01:00;17.90;99.90
21306;DHT22;10812;51.838;5.838;2023-07-29T00:03:28;18.00;99.90
21306;DHT22;10812;51.838;5.838;2023-07-29T00:05:59;18.00;99.90
21306;DHT22;10812;51.838;5.838;2023-07-29T00:08:27;18.00;99.90
21306;DHT22;10812;51.838;5.838;2023-07-29T00:10:55;18.00;99.90
21306;DHT22;10812;51.838;5.838;2023-07-29T00:13:23;18.00;99.90
21306;DHT22;10812;51.838;5.838;2023-07-29T00:15:54;17.90;99.90
21306;DHT22;10812;51.838;5.838;2023-07-29T00:18:23;17.90;99.90
21306;DHT22;10812;51.838;5.838;2023-07-29T00:20:51;17.90;99.90
21306;DHT22;10812;51.838;5.838;2023-07-29T00:23:19;17.80;99.90
21306;DHT22;10812;51.838;5.838;2023-07-29T00:25:48;17.90;99.90
21306;DHT22;10812;51.838;5.838;2023-07-29T00:28:16;17.80;99.90
21306;DHT22;10812;51.838;5.838;2023-07-29T00:30:48;17.90;99.90
21306;DHT22;10812;51.838;5.838;2023-07-29T00:33:16;17.80;99.90
21306;DHT22;10812;51.838;5.838;2023-07-29T00:35:48;17.70;99.90
21306;DHT22;10812;51.838;5.838;2023-07-29T00:38:16;17.70;99.90
21306;DHT22;10812;51.838;5.838;2023-07-29T00:40:44;17.60;99.90
21306;DHT22;10812;51.838;5.838;2023-07-29T00:43:12;17.60;99.90
21306;DHT22;10812;51.838;5.838;2023-07-29T00:45:41;17.60;99.90
21306;DHT22;10812;51.838;5.838;2023-07-29T00:48:11;17.60;99.90
21306;DHT22;10812;51.838;5.838;2023-07-29T00:50:39;17.60;99.90
21306;DHT22;10812;51.838;5.838;2023-07-29T00:53:09;17.50;99.90
21306;DHT22;10812;51.838;5.838;2023-07-29T00:55:37;17.50;99.90
21306;DHT22;10812;51.838;5.838;2023-07-29T00:58:05;17.50;99.90
21306;DHT22;10812;51.838;5.838;2023-07-29T01:00:34;17.50;99.90
21306;DHT22;10812;51.838;5.838;2023-07-29T01:03:02;17.40;99.90
21306;DHT22;10812;51.838;5.838;2023-07-29T01:05:35;17.50;99.90
21306;DHT22;10812;51.838;5.838;2023-07-29T01:08:11;17.50;99.90
21306;DHT22;10812;51.838;5.838;2023-07-29T01:10:48;17.60;99.90
21306;DHT22;10812;51.838;5.838;2023-07-29T01:13:23;17.70;99.90
21306;DHT22;10812;51.838;5.838;2023-07-29T01:15:55;17.70;99.90
21306;DHT22;10812;51.838;5.838;2023-07-29T01:18:28;17.70;99.90
21306;DHT22;10812;51.838;5.838;2023-07-29T01:20:59;17.70;99.90
21306;DHT22;10812;51.838;5.838;2023-07-29T01:23:31;17.70;99.90
21306;DHT22;10812;51.838;5.838;2023-07-29T01:25:59;17.60;99.90
21306;DHT22;10812;51.838;5.838;2023-07-29T01:28:28;17.60;99.90
21306;DHT22;10812;51.838;5.838;2023-07-29T01:31:00;17.60;99.90
21306;DHT22;10812;51.838;5.838;2023-07-29T01:33:35;17.60;99.90
21306;DHT22;10812;51.838;5.838;2023-07-29T01:36:10;17.60;99.90
21306;DHT22;10812;51.838;5.838;2023-07-29T01:38:41;17.50;99.90
21306;DHT22;10812;51.838;5.838;2023-07-29T01:41:11;17.50;99.90
21306;DHT22;10812;51.838;5.838;2023-07-29T01:43:40;17.60;99.90
21306;DHT22;10812;51.838;5.838;2023-07-29T01:46:11;17.60;99.90
21306;DHT22;10812;51.838;5.838;2023-07-29T01:48:40;17.60;99.90
21306;DHT22;10812;51.838;5.838;2023-07-29T01:51:11;17.70;99.90
21306;DHT22;10812;51.838;5.838;2023-07-29T01:53:40;17.80;99.90
21306;DHT22;10812;51.838;5.838;2023-07-29T01:56:08;17.80;99.90
21306;DHT22;10812;51.838;5.838;2023-07-29T01:58:36;17.80;99.90
21306;DHT22;10812;51.838;5.838;2023-07-29T02:01:05;17.90;99.90
21306;DHT22;10812;51.838;5.838;2023-07-29T02:03:33;17.90;99.90
21306;DHT22;10812;51.838;5.838;2023-07-29T02:06:01;17.90;99.90
21306;DHT22;10812;51.838;5.838;2023-07-29T02:08:29;17.90;99.90
21306;DHT22;10812;51.838;5.838;2023-07-29T02:10:58;17.90;99.90
21306;DHT22;10812;51.838;5.838;2023-07-29T02:13:26;17.90;99.90
21306;DHT22;10812;51.838;5.838;2023-07-29T02:15:54;18.00;99.90
21306;DHT22;10812;51.838;5.838;2023-07-29T02:18:22;17.90;99.90
21306;DHT22;10812;51.838;5.838;2023-07-29T02:20:50;18.00;99.90
21306;DHT22;10812;51.838;5.838;2023-07-29T02:23:18;17.90;99.90
21306;DHT22;10812;51.838;5.838;2023-07-29T02:25:46;18.00;99.90
21306;DHT22;10812;51.838;5.838;2023-07-29T02:28:16;18.00;99.90
21306;DHT22;10812;51.838;5.838;2023-07-29T02:30:44;18.00;99.90
21306;DHT22;10812;51.838;5.838;2023-07-29T02:33:12;18.00;99.90
21306;DHT22;10812;51.838;5.838;2023-07-29T02:35:40;18.00;99.90
21306;DHT22;10812;51.838;5.838;2023-07-29T02:38:08;18.00;99.90
21306;DHT22;10812;51.838;5.838;2023-07-29T02:40:38;18.10;99.90
21306;DHT22;10812;51.838;5.838;2023-07-29T02:43:06;18.10;99.90
21306;DHT22;10812;51.838;5.838;2023-07-29T02:45:35;18.20;99.90
21306;DHT22;10812;51.838;5.838;2023-07-29T02:48:03;18.20;99.90
21306;DHT22;10812;51.838;5.838;2023-07-29T02:50:31;18.10;99.90
21306;DHT22;10812;51.838;5.838;2023-07-29T02:53:01;18.10;99.90
21306;DHT22;10812;51.838;5.838;2023-07-29T02:55:30;18.10;99.90
21306;DHT22;10812;51.838;5.838;2023-07-29T02:57:58;18.10;99.90
21306;DHT22;10812;51.838;5.838;2023-07-29T03:05:44;18.10;99.90
